sensor_id;sensor_type;location;lat;lon;timestamp;P1;durP1;ratioP1;P2;durP2;ratioP2
5696;SDS011;2873;50.966;7.210;2024-03-22T00:00:19;32.53;;;17.80;;
5696;SDS011;2873;50.966;7.210;2024-03-22T00:02:44;29.23;;;16.93;;
5696;SDS011;2873;50.966;7.210;2024-03-22T00:05:10;27.67;;;17.73;;
5696;SDS011;2873;50.966;7.210;2024-03-22T00:07:36;28.03;;;16.27;;
5696;SDS011;2873;50.966;7.210;2024-03-22T00:10:02;28.90;;;16.80;;
5696;SDS011;2873;50.966;7.210;2024-03-22T00:12:28;27.20;;;16.67;;
5696;SDS011;2873;50.966;7.210;2024-03-22T00:14:56;40.33;;;18.17;;
5696;SDS011;2873;50.966;7.210;2024-03-22T00:17:22;31.10;;;17.85;;
5696;SDS011;2873;50.966;7.210;2024-03-22T00:19:47;30.83;;;16.73;;
5696;SDS011;2873;50.966;7.210;2024-03-22T00:22:13;31.30;;;16.63;;
5696;SDS011;2873;50.966;7.210;2024-03-22T00:24:39;31.35;;;17.08;;
5696;SDS011;2873;50.966;7.210;2024-03-22T00:27:05;28.13;;;16.60;;
5696;SDS011;2873;50.966;7.210;2024-03-22T00:29:30;25.95;;;16.00;;
5696;SDS011;2873;50.966;7.210;2024-03-22T00:31:56;29.40;;;16.60;;
5696;SDS011;2873;50.966;7.210;2024-03-22T00:34:21;31.37;;;17.70;;
5696;SDS011;2873;50.966;7.210;2024-03-22T00:36:47;29.63;;;16.35;;
5696;SDS011;2873;50.966;7.210;2024-03-22T00:39:12;28.33;;;16.20;;
5696;SDS011;2873;50.966;7.210;2024-03-22T00:41:38;29.52;;;16.50;;
5696;SDS011;2873;50.966;7.210;2024-03-22T00:44:04;28.07;;;15.70;;
5696;SDS011;2873;50.966;7.210;2024-03-22T00:46:29;28.73;;;15.90;;
5696;SDS011;2873;50.966;7.210;2024-03-22T00:48:55;28.23;;;16.90;;
5696;SDS011;2873;50.966;7.210;2024-03-22T00:51:20;34.97;;;16.70;;
5696;SDS011;2873;50.966;7.210;2024-03-22T00:53:47;30.10;;;16.00;;
5696;SDS011;2873;50.966;7.210;2024-03-22T00:56:12;27.63;;;16.35;;
5696;SDS011;2873;50.966;7.210;2024-03-22T00:58:38;30.80;;;17.90;;
5696;SDS011;2873;50.966;7.210;2024-03-22T01:01:03;32.63;;;16.83;;
5696;SDS011;2873;50.966;7.210;2024-03-22T01:03:29;28.92;;;16.52;;
5696;SDS011;2873;50.966;7.210;2024-03-22T01:05:54;29.17;;;16.93;;
5696;SDS011;2873;50.966;7.210;2024-03-22T01:08:22;30.10;;;17.65;;
5696;SDS011;2873;50.966;7.210;2024-03-22T01:10:48;27.17;;;16.17;;
5696;SDS011;2873;50.966;7.210;2024-03-22T01:13:13;29.37;;;16.53;;
5696;SDS011;2873;50.966;7.210;2024-03-22T01:15:38;28.95;;;16.00;;
5696;SDS011;2873;50.966;7.210;2024-03-22T01:18:04;29.77;;;16.07;;
5696;SDS011;2873;50.966;7.210;2024-03-22T01:20:30;31.55;;;16.15;;
5696;SDS011;2873;50.966;7.210;2024-03-22T01:22:55;26.02;;;15.32;;
5696;SDS011;2873;50.966;7.210;2024-03-22T01:25:21;26.40;;;14.50;;
5696;SDS011;2873;50.966;7.210;2024-03-22T01:27:46;25.42;;;15.23;;
5696;SDS011;2873;50.966;7.210;2024-03-22T01:30:12;26.03;;;15.43;;
5696;SDS011;2873;50.966;7.210;2024-03-22T01:32:37;31.23;;;16.23;;
5696;SDS011;2873;50.966;7.210;2024-03-22T01:35:03;28.73;;;16.95;;
5696;SDS011;2873;50.966;7.210;2024-03-22T01:37:29;31.48;;;17.15;;
5696;SDS011;2873;50.966;7.210;2024-03-22T01:39:54;32.07;;;17.07;;
5696;SDS011;2873;50.966;7.210;2024-03-22T01:42:20;27.97;;;16.80;;
5696;SDS011;2873;50.966;7.210;2024-03-22T01:44:46;31.10;;;17.60;;
5696;SDS011;2873;50.966;7.210;2024-03-22T01:47:13;31.92;;;17.23;;
5696;SDS011;2873;50.966;7.210;2024-03-22T01:49:39;31.70;;;16.70;;
5696;SDS011;2873;50.966;7.210;2024-03-22T01:52:04;31.17;;;16.55;;
5696;SDS011;2873;50.966;7.210;2024-03-22T01:54:30;24.65;;;14.00;;
5696;SDS011;2873;50.966;7.210;2024-03-22T01:56:56;26.07;;;14.80;;
5696;SDS011;2873;50.966;7.210;2024-03-22T01:59:22;27.17;;;15.15;;
5696;SDS011;2873;50.966;7.210;2024-03-22T02:01:47;29.47;;;17.47;;
5696;SDS011;2873;50.966;7.210;2024-03-22T02:04:14;25.50;;;14.90;;
5696;SDS011;2873;50.966;7.210;2024-03-22T02:06:40;29.90;;;15.60;;
5696;SDS011;2873;50.966;7.210;2024-03-22T02:09:05;26.88;;;15.07;;
5696;SDS011;2873;50.966;7.210;2024-03-22T02:11:34;26.07;;;15.20;;
5696;SDS011;2873;50.966;7.210;2024-03-22T02:14:01;29.60;;;15.18;;
5696;SDS011;2873;50.966;7.210;2024-03-22T02:16:26;25.60;;;14.80;;
5696;SDS011;2873;50.966;7.210;2024-03-22T02:18:52;24.03;;;13.73;;
5696;SDS011;2873;50.966;7.210;2024-03-22T02:21:18;20.98;;;13.38;;
5696;SDS011;2873;50.966;7.210;2024-03-22T02:23:43;23.13;;;13.50;;
5696;SDS011;2873;50.966;7.210;2024-03-22T02:26:09;22.73;;;13.30;;
5696;SDS011;2873;50.966;7.210;2024-03-22T02:28:35;23.47;;;13.50;;
5696;SDS011;2873;50.966;7.210;2024-03-22T02:31:01;22.33;;;13.35;;
5696;SDS011;2873;50.966;7.210;2024-03-22T02:33:27;32.10;;;13.90;;
5696;SDS011;2873;50.966;7.210;2024-03-22T02:35:53;22.10;;;12.60;;
5696;SDS011;2873;50.966;7.210;2024-03-22T02:38:19;22.00;;;12.37;;
5696;SDS011;2873;50.966;7.210;2024-03-22T02:40:45;21.70;;;12.77;;
5696;SDS011;2873;50.966;7.210;2024-03-22T02:43:11;18.83;;;11.27;;
5696;SDS011;2873;50.966;7.210;2024-03-22T02:45:37;16.57;;;11.30;;
5696;SDS011;2873;50.966;7.210;2024-03-22T02:48:03;16.35;;;10.27;;
5696;SDS011;2873;50.966;7.210;2024-03-22T02:50:33;21.55;;;12.40;;
5696;SDS011;2873;50.966;7.210;2024-03-22T02:52:59;19.05;;;11.85;;
5696;SDS011;2873;50.966;7.210;2024-03-22T02:55:25;22.52;;;12.10;;
5696;SDS011;2873;50.966;7.210;2024-03-22T02:57:50;19.67;;;11.83;;
5696;SDS011;2873;50.966;7.210;2024-03-22T03:00:16;21.43;;;12.20;;
5696;SDS011;2873;50.966;7.210;2024-03-22T03:02:43;23.13;;;12.63;;
5696;SDS011;2873;50.966;7.210;2024-03-22T03:05:09;19.83;;;12.05;;
5696;SDS011;2873;50.966;7.210;2024-03-22T03:07:35;21.43;;;12.20;;
5696;SDS011;2873;50.966;7.210;2024-03-22T03:10:00;18.90;;;11.10;;
5696;SDS011;2873;50.966;7.210;2024-03-22T03:12:26;19.33;;;11.20;;
5696;SDS011;2873;50.966;7.210;2024-03-22T03:14:51;17.53;;;10.43;;
5696;SDS011;2873;50.966;7.210;2024-03-22T03:17:17;18.57;;;10.97;;
5696;SDS011;2873;50.966;7.210;2024-03-22T03:19:43;18.20;;;10.05;;
5696;SDS011;2873;50.966;7.210;2024-03-22T03:22:09;17.83;;;10.60;;
5696;SDS011;2873;50.966;7.210;2024-03-22T03:24:35;14.98;;;10.02;;
5696;SDS011;2873;50.966;7.210;2024-03-22T03:27:00;15.13;;;9.20;;
5696;SDS011;2873;50.966;7.210;2024-03-22T03:29:27;12.93;;;8.60;;
5696;SDS011;2873;50.966;7.210;2024-03-22T03:31:53;15.93;;;9.10;;
5696;SDS011;2873;50.966;7.210;2024-03-22T03:34:18;16.77;;;9.57;;
5696;SDS011;2873;50.966;7.210;2024-03-22T03:36:45;18.60;;;9.68;;
5696;SDS011;2873;50.966;7.210;2024-03-22T03:39:11;16.00;;;9.80;;
5696;SDS011;2873;50.966;7.210;2024-03-22T03:41:36;16.33;;;9.93;;
5696;SDS011;2873;50.966;7.210;2024-03-22T03:44:02;14.55;;;8.68;;
5696;SDS011;2873;50.966;7.210;2024-03-22T03:46:27;16.73;;;10.17;;
5696;SDS011;2873;50.966;7.210;2024-03-22T03:48:53;16.30;;;9.33;;
5696;SDS011;2873;50.966;7.210;2024-03-22T03:51:18;18.40;;;9.43;;
5696;SDS011;2873;50.966;7.210;2024-03-22T03:53:44;12.93;;;8.90;;
5696;SDS011;2873;50.966;7.210;2024-03-22T03:56:09;15.67;;;9.53;;
5696;SDS011;2873;50.966;7.210;2024-03-22T03:58:35;16.80;;;9.35;;
5696;SDS011;2873;50.966;7.210;2024-03-22T04:01:05;14.00;;;9.03;;
5696;SDS011;2873;50.966;7.210;2024-03-22T04:03:34;13.13;;;8.82;;
5696;SDS011;2873;50.966;7.210;2024-03-22T04:05:59;13.35;;;8.65;;
5696;SDS011;2873;50.966;7.210;2024-03-22T04:08:26;14.07;;;8.95;;
5696;SDS011;2873;50.966;7.210;2024-03-22T04:10:52;13.57;;;8.10;;
5696;SDS011;2873;50.966;7.210;2024-03-22T04:13:18;15.90;;;9.30;;
5696;SDS011;2873;50.966;7.210;2024-03-22T04:15:43;15.73;;;8.97;;
5696;SDS011;2873;50.966;7.210;2024-03-22T04:18:09;13.85;;;9.10;;
5696;SDS011;2873;50.966;7.210;2024-03-22T04:20:34;14.90;;;9.20;;
5696;SDS011;2873;50.966;7.210;2024-03-22T04:23:00;12.20;;;8.35;;
5696;SDS011;2873;50.966;7.210;2024-03-22T04:25:26;14.57;;;9.73;;
5696;SDS011;2873;50.966;7.210;2024-03-22T04:27:51;15.17;;;9.43;;
5696;SDS011;2873;50.966;7.210;2024-03-22T04:30:16;14.00;;;9.52;;
5696;SDS011;2873;50.966;7.210;2024-03-22T04:32:42;17.10;;;9.50;;
5696;SDS011;2873;50.966;7.210;2024-03-22T04:35:11;15.48;;;9.30;;
5696;SDS011;2873;50.966;7.210;2024-03-22T04:37:37;13.60;;;8.70;;
5696;SDS011;2873;50.966;7.210;2024-03-22T04:40:03;17.40;;;9.60;;
5696;SDS011;2873;50.966;7.210;2024-03-22T04:42:29;14.88;;;8.93;;
5696;SDS011;2873;50.966;7.210;2024-03-22T04:44:54;16.23;;;9.10;;
5696;SDS011;2873;50.966;7.210;2024-03-22T04:47:20;18.30;;;9.88;;
5696;SDS011;2873;50.966;7.210;2024-03-22T04:49:45;17.00;;;9.50;;
5696;SDS011;2873;50.966;7.210;2024-03-22T04:52:11;15.50;;;9.40;;
5696;SDS011;2873;50.966;7.210;2024-03-22T04:54:36;15.90;;;9.33;;
5696;SDS011;2873;50.966;7.210;2024-03-22T04:57:02;16.02;;;9.85;;
5696;SDS011;2873;50.966;7.210;2024-03-22T04:59:28;20.23;;;10.60;;
5696;SDS011;2873;50.966;7.210;2024-03-22T05:01:53;15.18;;;9.10;;
5696;SDS011;2873;50.966;7.210;2024-03-22T05:04:19;14.00;;;9.77;;
5696;SDS011;2873;50.966;7.210;2024-03-22T05:06:44;15.30;;;9.50;;
5696;SDS011;2873;50.966;7.210;2024-03-22T05:09:10;19.02;;;9.80;;
5696;SDS011;2873;50.966;7.210;2024-03-22T05:11:36;16.65;;;9.85;;
5696;SDS011;2873;50.966;7.210;2024-03-22T05:14:01;15.83;;;9.90;;
5696;SDS011;2873;50.966;7.210;2024-03-22T05:16:27;16.77;;;10.20;;
5696;SDS011;2873;50.966;7.210;2024-03-22T05:18:53;15.50;;;9.90;;
5696;SDS011;2873;50.966;7.210;2024-03-22T05:21:18;14.60;;;9.50;;
5696;SDS011;2873;50.966;7.210;2024-03-22T05:23:44;13.40;;;9.73;;
5696;SDS011;2873;50.966;7.210;2024-03-22T05:26:10;15.85;;;9.27;;
5696;SDS011;2873;50.966;7.210;2024-03-22T05:28:35;14.40;;;9.60;;
5696;SDS011;2873;50.966;7.210;2024-03-22T05:31:01;15.73;;;10.10;;
5696;SDS011;2873;50.966;7.210;2024-03-22T05:33:26;22.00;;;10.70;;
5696;SDS011;2873;50.966;7.210;2024-03-22T05:35:52;16.50;;;10.30;;
5696;SDS011;2873;50.966;7.210;2024-03-22T05:38:18;15.98;;;9.20;;
5696;SDS011;2873;50.966;7.210;2024-03-22T05:40:43;18.30;;;10.77;;
5696;SDS011;2873;50.966;7.210;2024-03-22T05:43:11;14.98;;;10.13;;
5696;SDS011;2873;50.966;7.210;2024-03-22T05:45:37;14.27;;;9.52;;
5696;SDS011;2873;50.966;7.210;2024-03-22T05:48:03;16.15;;;10.02;;
5696;SDS011;2873;50.966;7.210;2024-03-22T05:50:29;15.30;;;9.70;;
5696;SDS011;2873;50.966;7.210;2024-03-22T05:52:54;18.85;;;10.55;;
5696;SDS011;2873;50.966;7.210;2024-03-22T05:55:20;17.20;;;10.50;;
5696;SDS011;2873;50.966;7.210;2024-03-22T05:57:46;15.55;;;9.68;;
5696;SDS011;2873;50.966;7.210;2024-03-22T06:00:11;15.80;;;9.77;;
5696;SDS011;2873;50.966;7.210;2024-03-22T06:02:38;18.02;;;10.20;;
5696;SDS011;2873;50.966;7.210;2024-03-22T06:05:04;20.35;;;11.02;;
5696;SDS011;2873;50.966;7.210;2024-03-22T06:07:30;15.55;;;10.00;;
5696;SDS011;2873;50.966;7.210;2024-03-22T06:10:04;12.38;;;8.88;;
5696;SDS011;2873;50.966;7.210;2024-03-22T06:12:30;18.50;;;10.27;;
5696;SDS011;2873;50.966;7.210;2024-03-22T06:14:55;17.77;;;10.13;;
5696;SDS011;2873;50.966;7.210;2024-03-22T06:17:21;15.60;;;9.48;;
5696;SDS011;2873;50.966;7.210;2024-03-22T06:19:47;14.70;;;9.65;;
5696;SDS011;2873;50.966;7.210;2024-03-22T06:22:12;15.60;;;9.97;;
5696;SDS011;2873;50.966;7.210;2024-03-22T06:24:38;15.77;;;10.30;;
5696;SDS011;2873;50.966;7.210;2024-03-22T06:27:04;18.25;;;10.32;;
5696;SDS011;2873;50.966;7.210;2024-03-22T06:29:30;14.88;;;9.20;;
5696;SDS011;2873;50.966;7.210;2024-03-22T06:31:55;13.33;;;8.67;;
5696;SDS011;2873;50.966;7.210;2024-03-22T06:34:21;15.20;;;9.20;;
5696;SDS011;2873;50.966;7.210;2024-03-22T06:36:46;16.30;;;8.83;;
5696;SDS011;2873;50.966;7.210;2024-03-22T06:39:12;12.98;;;8.90;;
5696;SDS011;2873;50.966;7.210;2024-03-22T06:41:38;13.47;;;8.63;;
5696;SDS011;2873;50.966;7.210;2024-03-22T06:44:03;14.53;;;9.03;;
5696;SDS011;2873;50.966;7.210;2024-03-22T06:46:29;14.25;;;8.75;;
5696;SDS011;2873;50.966;7.210;2024-03-22T06:48:55;13.45;;;8.55;;
5696;SDS011;2873;50.966;7.210;2024-03-22T06:51:22;15.35;;;9.02;;
5696;SDS011;2873;50.966;7.210;2024-03-22T06:53:48;16.55;;;9.10;;
5696;SDS011;2873;50.966;7.210;2024-03-22T06:56:14;17.10;;;10.13;;
5696;SDS011;2873;50.966;7.210;2024-03-22T06:58:39;16.50;;;9.50;;
5696;SDS011;2873;50.966;7.210;2024-03-22T07:01:05;13.88;;;9.05;;
5696;SDS011;2873;50.966;7.210;2024-03-22T07:03:30;13.53;;;8.83;;
5696;SDS011;2873;50.966;7.210;2024-03-22T07:05:56;15.45;;;9.30;;
5696;SDS011;2873;50.966;7.210;2024-03-22T07:08:22;14.52;;;8.90;;
5696;SDS011;2873;50.966;7.210;2024-03-22T07:10:48;13.30;;;8.50;;
5696;SDS011;2873;50.966;7.210;2024-03-22T07:13:14;14.87;;;8.90;;
5696;SDS011;2873;50.966;7.210;2024-03-22T07:15:40;17.60;;;8.80;;
5696;SDS011;2873;50.966;7.210;2024-03-22T07:18:05;14.30;;;9.27;;
5696;SDS011;2873;50.966;7.210;2024-03-22T07:20:31;14.60;;;8.75;;
5696;SDS011;2873;50.966;7.210;2024-03-22T07:22:56;15.97;;;9.50;;
5696;SDS011;2873;50.966;7.210;2024-03-22T07:25:22;14.27;;;9.43;;
5696;SDS011;2873;50.966;7.210;2024-03-22T07:27:47;14.95;;;10.15;;
5696;SDS011;2873;50.966;7.210;2024-03-22T07:30:14;13.98;;;9.30;;
5696;SDS011;2873;50.966;7.210;2024-03-22T07:32:39;15.27;;;9.37;;
5696;SDS011;2873;50.966;7.210;2024-03-22T07:35:05;13.90;;;9.00;;
5696;SDS011;2873;50.966;7.210;2024-03-22T07:37:32;13.23;;;8.90;;
5696;SDS011;2873;50.966;7.210;2024-03-22T07:39:59;15.52;;;9.60;;
5696;SDS011;2873;50.966;7.210;2024-03-22T07:42:25;14.75;;;9.27;;
5696;SDS011;2873;50.966;7.210;2024-03-22T07:44:50;15.80;;;9.57;;
5696;SDS011;2873;50.966;7.210;2024-03-22T07:47:16;14.20;;;8.90;;
5696;SDS011;2873;50.966;7.210;2024-03-22T07:49:41;13.23;;;8.87;;
5696;SDS011;2873;50.966;7.210;2024-03-22T07:52:07;13.80;;;9.50;;
5696;SDS011;2873;50.966;7.210;2024-03-22T07:54:32;14.50;;;9.95;;
5696;SDS011;2873;50.966;7.210;2024-03-22T07:56:58;13.03;;;9.37;;
5696;SDS011;2873;50.966;7.210;2024-03-22T07:59:24;15.50;;;8.65;;
5696;SDS011;2873;50.966;7.210;2024-03-22T08:01:50;15.17;;;8.73;;
5696;SDS011;2873;50.966;7.210;2024-03-22T08:04:15;14.35;;;9.00;;
5696;SDS011;2873;50.966;7.210;2024-03-22T08:06:41;12.43;;;9.00;;
5696;SDS011;2873;50.966;7.210;2024-03-22T08:09:07;18.35;;;9.50;;
5696;SDS011;2873;50.966;7.210;2024-03-22T08:11:32;17.07;;;9.20;;
5696;SDS011;2873;50.966;7.210;2024-03-22T08:13:58;14.27;;;10.10;;
5696;SDS011;2873;50.966;7.210;2024-03-22T08:16:28;17.50;;;9.23;;
5696;SDS011;2873;50.966;7.210;2024-03-22T08:18:54;17.70;;;10.45;;
5696;SDS011;2873;50.966;7.210;2024-03-22T08:21:19;17.55;;;10.55;;
5696;SDS011;2873;50.966;7.210;2024-03-22T08:23:45;16.30;;;10.50;;
5696;SDS011;2873;50.966;7.210;2024-03-22T08:26:11;14.40;;;9.98;;
5696;SDS011;2873;50.966;7.210;2024-03-22T08:28:36;21.10;;;11.80;;
5696;SDS011;2873;50.966;7.210;2024-03-22T08:31:03;22.27;;;12.43;;
5696;SDS011;2873;50.966;7.210;2024-03-22T08:33:29;16.92;;;11.60;;
5696;SDS011;2873;50.966;7.210;2024-03-22T08:35:55;18.50;;;11.07;;
5696;SDS011;2873;50.966;7.210;2024-03-22T08:38:21;20.52;;;11.57;;
5696;SDS011;2873;50.966;7.210;2024-03-22T08:40:46;18.67;;;11.53;;
5696;SDS011;2873;50.966;7.210;2024-03-22T08:43:12;19.40;;;12.03;;
5696;SDS011;2873;50.966;7.210;2024-03-22T08:45:37;16.80;;;11.77;;
5696;SDS011;2873;50.966;7.210;2024-03-22T08:48:03;24.07;;;12.00;;
5696;SDS011;2873;50.966;7.210;2024-03-22T08:50:29;20.70;;;12.93;;
5696;SDS011;2873;50.966;7.210;2024-03-22T08:52:54;18.87;;;11.40;;
5696;SDS011;2873;50.966;7.210;2024-03-22T08:55:20;16.57;;;11.73;;
5696;SDS011;2873;50.966;7.210;2024-03-22T08:57:45;21.40;;;12.30;;
5696;SDS011;2873;50.966;7.210;2024-03-22T09:00:11;21.98;;;12.95;;
5696;SDS011;2873;50.966;7.210;2024-03-22T09:02:37;19.35;;;12.40;;
5696;SDS011;2873;50.966;7.210;2024-03-22T09:05:03;20.70;;;12.40;;
5696;SDS011;2873;50.966;7.210;2024-03-22T09:07:30;19.50;;;12.05;;
5696;SDS011;2873;50.966;7.210;2024-03-22T09:09:55;20.23;;;12.00;;
5696;SDS011;2873;50.966;7.210;2024-03-22T09:12:21;19.17;;;12.37;;
5696;SDS011;2873;50.966;7.210;2024-03-22T09:14:46;19.13;;;12.02;;
5696;SDS011;2873;50.966;7.210;2024-03-22T09:17:12;18.80;;;11.23;;
5696;SDS011;2873;50.966;7.210;2024-03-22T09:19:37;16.67;;;11.47;;
5696;SDS011;2873;50.966;7.210;2024-03-22T09:22:03;16.83;;;10.82;;
5696;SDS011;2873;50.966;7.210;2024-03-22T09:24:28;18.20;;;10.73;;
5696;SDS011;2873;50.966;7.210;2024-03-22T09:26:54;18.73;;;10.13;;
5696;SDS011;2873;50.966;7.210;2024-03-22T09:29:20;17.92;;;10.98;;
5696;SDS011;2873;50.966;7.210;2024-03-22T09:31:45;15.00;;;10.03;;
5696;SDS011;2873;50.966;7.210;2024-03-22T09:34:14;20.08;;;10.13;;
5696;SDS011;2873;50.966;7.210;2024-03-22T09:36:41;14.95;;;9.77;;
5696;SDS011;2873;50.966;7.210;2024-03-22T09:39:07;14.75;;;9.45;;
5696;SDS011;2873;50.966;7.210;2024-03-22T09:41:33;15.48;;;8.60;;
5696;SDS011;2873;50.966;7.210;2024-03-22T09:44:07;10.60;;;7.80;;
5696;SDS011;2873;50.966;7.210;2024-03-22T09:46:38;11.30;;;7.95;;
5696;SDS011;2873;50.966;7.210;2024-03-22T09:49:07;11.02;;;7.43;;
5696;SDS011;2873;50.966;7.210;2024-03-22T09:51:37;12.10;;;7.60;;
5696;SDS011;2873;50.966;7.210;2024-03-22T09:54:11;11.65;;;7.78;;
5696;SDS011;2873;50.966;7.210;2024-03-22T09:56:40;10.23;;;7.17;;
5696;SDS011;2873;50.966;7.210;2024-03-22T09:59:05;10.35;;;6.80;;
5696;SDS011;2873;50.966;7.210;2024-03-22T10:01:32;11.60;;;6.15;;
5696;SDS011;2873;50.966;7.210;2024-03-22T10:03:59;10.73;;;5.90;;
5696;SDS011;2873;50.966;7.210;2024-03-22T10:06:25;9.57;;;5.28;;
5696;SDS011;2873;50.966;7.210;2024-03-22T10:08:50;9.57;;;5.13;;
5696;SDS011;2873;50.966;7.210;2024-03-22T10:11:16;6.57;;;5.10;;
5696;SDS011;2873;50.966;7.210;2024-03-22T10:13:42;7.18;;;4.93;;
5696;SDS011;2873;50.966;7.210;2024-03-22T10:16:07;8.30;;;4.93;;
5696;SDS011;2873;50.966;7.210;2024-03-22T10:18:33;8.18;;;4.88;;
5696;SDS011;2873;50.966;7.210;2024-03-22T10:21:02;8.10;;;4.00;;
5696;SDS011;2873;50.966;7.210;2024-03-22T10:23:29;7.22;;;5.00;;
5696;SDS011;2873;50.966;7.210;2024-03-22T10:25:58;6.97;;;4.20;;
5696;SDS011;2873;50.966;7.210;2024-03-22T10:28:27;7.43;;;4.80;;
5696;SDS011;2873;50.966;7.210;2024-03-22T10:30:53;7.03;;;4.30;;
5696;SDS011;2873;50.966;7.210;2024-03-22T10:33:19;5.85;;;4.40;;
5696;SDS011;2873;50.966;7.210;2024-03-22T10:35:47;5.63;;;4.30;;
5696;SDS011;2873;50.966;7.210;2024-03-22T10:38:19;6.93;;;4.45;;
5696;SDS011;2873;50.966;7.210;2024-03-22T10:40:45;7.32;;;5.40;;
5696;SDS011;2873;50.966;7.210;2024-03-22T10:43:12;7.60;;;4.10;;
5696;SDS011;2873;50.966;7.210;2024-03-22T10:45:38;7.40;;;4.85;;
5696;SDS011;2873;50.966;7.210;2024-03-22T10:48:08;7.70;;;5.38;;
5696;SDS011;2873;50.966;7.210;2024-03-22T10:50:37;6.68;;;4.70;;
5696;SDS011;2873;50.966;7.210;2024-03-22T10:53:06;8.20;;;4.80;;
5696;SDS011;2873;50.966;7.210;2024-03-22T10:55:40;9.07;;;4.95;;
5696;SDS011;2873;50.966;7.210;2024-03-22T10:58:14;9.60;;;5.72;;
5696;SDS011;2873;50.966;7.210;2024-03-22T11:00:46;7.40;;;5.30;;
5696;SDS011;2873;50.966;7.210;2024-03-22T11:03:15;8.70;;;5.90;;
5696;SDS011;2873;50.966;7.210;2024-03-22T11:05:47;9.63;;;6.28;;
5696;SDS011;2873;50.966;7.210;2024-03-22T11:08:22;7.50;;;5.78;;
5696;SDS011;2873;50.966;7.210;2024-03-22T11:10:52;6.85;;;5.28;;
5696;SDS011;2873;50.966;7.210;2024-03-22T11:13:18;11.52;;;5.40;;
5696;SDS011;2873;50.966;7.210;2024-03-22T11:15:46;6.32;;;5.40;;
5696;SDS011;2873;50.966;7.210;2024-03-22T11:18:12;9.23;;;5.30;;
5696;SDS011;2873;50.966;7.210;2024-03-22T11:20:38;8.33;;;5.30;;
5696;SDS011;2873;50.966;7.210;2024-03-22T11:23:04;7.90;;;5.45;;
5696;SDS011;2873;50.966;7.210;2024-03-22T11:25:33;12.05;;;5.60;;
5696;SDS011;2873;50.966;7.210;2024-03-22T11:27:59;8.95;;;5.80;;
5696;SDS011;2873;50.966;7.210;2024-03-22T11:30:28;10.52;;;5.50;;
5696;SDS011;2873;50.966;7.210;2024-03-22T11:32:54;6.25;;;5.50;;
5696;SDS011;2873;50.966;7.210;2024-03-22T11:35:20;7.25;;;5.50;;
5696;SDS011;2873;50.966;7.210;2024-03-22T11:37:47;8.90;;;6.63;;
5696;SDS011;2873;50.966;7.210;2024-03-22T11:40:14;8.35;;;5.80;;
5696;SDS011;2873;50.966;7.210;2024-03-22T11:42:40;9.43;;;6.10;;
5696;SDS011;2873;50.966;7.210;2024-03-22T11:45:07;10.43;;;6.32;;
5696;SDS011;2873;50.966;7.210;2024-03-22T11:47:35;9.40;;;6.03;;
5696;SDS011;2873;50.966;7.210;2024-03-22T11:50:01;7.30;;;5.47;;
5696;SDS011;2873;50.966;7.210;2024-03-22T11:52:29;8.98;;;6.47;;
5696;SDS011;2873;50.966;7.210;2024-03-22T11:54:55;10.68;;;6.10;;
5696;SDS011;2873;50.966;7.210;2024-03-22T11:57:21;9.75;;;6.72;;
5696;SDS011;2873;50.966;7.210;2024-03-22T11:59:48;7.85;;;6.00;;
5696;SDS011;2873;50.966;7.210;2024-03-22T12:02:14;8.93;;;6.00;;
5696;SDS011;2873;50.966;7.210;2024-03-22T12:04:49;10.02;;;5.45;;
5696;SDS011;2873;50.966;7.210;2024-03-22T12:07:15;9.95;;;5.82;;
5696;SDS011;2873;50.966;7.210;2024-03-22T12:09:42;6.97;;;5.30;;
5696;SDS011;2873;50.966;7.210;2024-03-22T12:12:09;9.38;;;5.90;;
5696;SDS011;2873;50.966;7.210;2024-03-22T12:14:36;8.52;;;5.80;;
5696;SDS011;2873;50.966;7.210;2024-03-22T12:17:03;8.35;;;5.68;;
5696;SDS011;2873;50.966;7.210;2024-03-22T12:19:29;10.13;;;6.18;;
5696;SDS011;2873;50.966;7.210;2024-03-22T12:21:54;7.63;;;6.10;;
5696;SDS011;2873;50.966;7.210;2024-03-22T12:24:20;8.90;;;6.70;;
5696;SDS011;2873;50.966;7.210;2024-03-22T12:26:47;11.85;;;6.88;;
5696;SDS011;2873;50.966;7.210;2024-03-22T12:29:13;9.00;;;6.88;;
5696;SDS011;2873;50.966;7.210;2024-03-22T12:31:40;9.68;;;6.50;;
5696;SDS011;2873;50.966;7.210;2024-03-22T12:34:06;9.13;;;6.90;;
5696;SDS011;2873;50.966;7.210;2024-03-22T12:36:33;10.40;;;7.10;;
5696;SDS011;2873;50.966;7.210;2024-03-22T12:38:58;10.35;;;7.53;;
5696;SDS011;2873;50.966;7.210;2024-03-22T12:41:24;10.40;;;8.00;;
5696;SDS011;2873;50.966;7.210;2024-03-22T12:43:50;9.23;;;7.50;;
5696;SDS011;2873;50.966;7.210;2024-03-22T12:46:16;10.63;;;7.20;;
5696;SDS011;2873;50.966;7.210;2024-03-22T12:48:41;13.80;;;8.02;;
5696;SDS011;2873;50.966;7.210;2024-03-22T12:51:07;10.33;;;7.20;;
5696;SDS011;2873;50.966;7.210;2024-03-22T12:53:33;10.20;;;7.15;;
5696;SDS011;2873;50.966;7.210;2024-03-22T12:55:58;11.77;;;7.80;;
5696;SDS011;2873;50.966;7.210;2024-03-22T12:58:24;10.73;;;7.50;;
5696;SDS011;2873;50.966;7.210;2024-03-22T13:00:49;10.98;;;7.35;;
5696;SDS011;2873;50.966;7.210;2024-03-22T13:03:15;10.40;;;7.32;;
5696;SDS011;2873;50.966;7.210;2024-03-22T13:05:41;12.00;;;7.47;;
5696;SDS011;2873;50.966;7.210;2024-03-22T13:08:07;10.25;;;7.13;;
5696;SDS011;2873;50.966;7.210;2024-03-22T13:10:32;11.23;;;7.13;;
5696;SDS011;2873;50.966;7.210;2024-03-22T13:12:58;11.43;;;7.50;;
5696;SDS011;2873;50.966;7.210;2024-03-22T13:15:23;12.37;;;7.90;;
5696;SDS011;2873;50.966;7.210;2024-03-22T13:17:50;10.23;;;7.38;;
5696;SDS011;2873;50.966;7.210;2024-03-22T13:20:17;12.05;;;8.10;;
5696;SDS011;2873;50.966;7.210;2024-03-22T13:22:43;12.05;;;7.90;;
5696;SDS011;2873;50.966;7.210;2024-03-22T13:25:08;15.07;;;7.60;;
5696;SDS011;2873;50.966;7.210;2024-03-22T13:27:35;9.00;;;7.18;;
5696;SDS011;2873;50.966;7.210;2024-03-22T13:30:04;7.80;;;6.57;;
5696;SDS011;2873;50.966;7.210;2024-03-22T13:32:30;11.73;;;7.30;;
5696;SDS011;2873;50.966;7.210;2024-03-22T13:34:56;10.40;;;7.50;;
5696;SDS011;2873;50.966;7.210;2024-03-22T13:37:22;9.43;;;6.00;;
5696;SDS011;2873;50.966;7.210;2024-03-22T13:39:48;10.35;;;6.93;;
5696;SDS011;2873;50.966;7.210;2024-03-22T13:42:14;9.00;;;6.80;;
5696;SDS011;2873;50.966;7.210;2024-03-22T13:44:40;12.63;;;7.20;;
5696;SDS011;2873;50.966;7.210;2024-03-22T13:47:06;9.80;;;6.88;;
5696;SDS011;2873;50.966;7.210;2024-03-22T13:49:32;9.90;;;7.00;;
5696;SDS011;2873;50.966;7.210;2024-03-22T13:51:57;10.70;;;6.80;;
5696;SDS011;2873;50.966;7.210;2024-03-22T13:54:24;8.55;;;6.68;;
5696;SDS011;2873;50.966;7.210;2024-03-22T13:56:50;9.15;;;6.45;;
5696;SDS011;2873;50.966;7.210;2024-03-22T13:59:16;8.95;;;6.50;;
5696;SDS011;2873;50.966;7.210;2024-03-22T14:01:41;9.80;;;5.50;;
5696;SDS011;2873;50.966;7.210;2024-03-22T14:04:10;12.02;;;7.38;;
5696;SDS011;2873;50.966;7.210;2024-03-22T14:06:36;10.05;;;7.18;;
5696;SDS011;2873;50.966;7.210;2024-03-22T14:09:03;11.80;;;6.77;;
5696;SDS011;2873;50.966;7.210;2024-03-22T14:11:30;10.35;;;7.45;;
5696;SDS011;2873;50.966;7.210;2024-03-22T14:13:56;10.60;;;8.02;;
5696;SDS011;2873;50.966;7.210;2024-03-22T14:16:22;10.77;;;7.65;;
5696;SDS011;2873;50.966;7.210;2024-03-22T14:18:48;16.30;;;7.55;;
5696;SDS011;2873;50.966;7.210;2024-03-22T14:21:14;10.48;;;6.97;;
5696;SDS011;2873;50.966;7.210;2024-03-22T14:23:44;13.00;;;7.30;;
5696;SDS011;2873;50.966;7.210;2024-03-22T14:26:14;8.85;;;7.10;;
5696;SDS011;2873;50.966;7.210;2024-03-22T14:28:41;9.40;;;6.70;;
5696;SDS011;2873;50.966;7.210;2024-03-22T14:31:07;10.77;;;7.10;;
5696;SDS011;2873;50.966;7.210;2024-03-22T14:33:37;10.50;;;6.80;;
5696;SDS011;2873;50.966;7.210;2024-03-22T14:36:03;11.87;;;6.70;;
5696;SDS011;2873;50.966;7.210;2024-03-22T14:38:29;8.80;;;6.40;;
5696;SDS011;2873;50.966;7.210;2024-03-22T14:40:56;13.40;;;7.43;;
5696;SDS011;2873;50.966;7.210;2024-03-22T14:43:23;10.02;;;7.53;;
5696;SDS011;2873;50.966;7.210;2024-03-22T14:45:49;12.02;;;8.90;;
5696;SDS011;2873;50.966;7.210;2024-03-22T14:48:19;11.45;;;8.27;;
5696;SDS011;2873;50.966;7.210;2024-03-22T14:50:45;13.07;;;8.88;;